College City, California
Current Conditions -  °F | °C
As of 6:53 AM on Thursday 23 Oct 2014 (Local Time) from KMYV Reporting Station
Clear Clear  
Wind Chill: 60°   Ceiling: Unl
Heat Index: 60°   Visibility: 10mi
Dew Point: 47°   Wind: 3mph
Humidity: 62%   Direction: 160°SSE
Pressure: 30.02"   Gusts: NA
Location:  39.01°N, 122.01°W
Report Text: KMYV 231353Z AUTO 16003KT 10SM CLR 16/08 A3002 RMK AO2 SLP168 T01560083
Loading
Personal Weather Stations






























Interactive Weather Map
Tropical Storm Tracking
New forecast layout! Learn more

10-Day Weather Forecast

Advertisements
Track Severe Weather on mobile